createdAt,value
2019-02-10T00:01:54.214Z,3.03
2019-02-10T00:04:21.807Z,2.90
2019-02-10T00:06:49.415Z,2.90
2019-02-10T00:09:17.039Z,3.30
2019-02-10T00:11:50.571Z,3.07
2019-02-10T00:14:21.234Z,3.13
2019-02-10T00:16:48.806Z,3.37
2019-02-10T00:19:16.484Z,3.00
2019-02-10T00:21:44.199Z,3.37
2019-02-10T00:24:12.090Z,3.40
2019-02-10T00:26:41.734Z,2.97
2019-02-10T00:29:09.765Z,2.67
2019-02-10T00:31:37.771Z,3.33
2019-02-10T00:34:05.998Z,3.20
2019-02-10T00:36:33.816Z,3.67
2019-02-10T00:39:01.548Z,4.30
2019-02-10T00:41:29.795Z,3.33
2019-02-10T00:43:57.614Z,3.57
2019-02-10T00:46:25.223Z,3.33
2019-02-10T00:48:53.117Z,2.90
2019-02-10T00:51:21.071Z,2.80
2019-02-10T00:53:48.806Z,3.23
2019-02-10T00:56:16.687Z,2.23
2019-02-10T00:58:44.425Z,2.60
2019-02-10T01:01:12.227Z,2.97
2019-02-10T01:03:40.029Z,3.77
2019-02-10T01:06:07.558Z,3.07
2019-02-10T01:08:35.227Z,2.80
2019-02-10T01:11:03.282Z,3.07
2019-02-10T01:13:30.963Z,2.70
2019-02-10T01:15:58.706Z,2.87
2019-02-10T01:18:26.804Z,2.83
2019-02-10T01:20:54.502Z,2.70
2019-02-10T01:23:22.290Z,2.67
2019-02-10T01:25:50.670Z,4.00
2019-02-10T01:28:18.632Z,2.63
2019-02-10T01:30:46.603Z,2.73
2019-02-10T01:33:14.412Z,2.93
2019-02-10T01:35:42.422Z,2.77
2019-02-10T01:38:10.334Z,2.83
2019-02-10T01:40:38.211Z,3.43
2019-02-10T01:43:05.803Z,2.90
2019-02-10T01:45:33.418Z,2.97
2019-02-10T01:48:01.888Z,3.37
2019-02-10T01:50:30.557Z,3.50
2019-02-10T01:52:58.485Z,2.93
2019-02-10T01:55:26.191Z,3.37
2019-02-10T01:57:53.817Z,3.00
2019-02-10T02:00:21.628Z,3.13
2019-02-10T02:02:49.299Z,3.83
2019-02-10T02:05:17.495Z,3.73
2019-02-10T02:07:45.112Z,2.97
2019-02-10T02:10:13.306Z,3.43
2019-02-10T02:12:40.982Z,3.43
2019-02-10T02:15:10.946Z,3.57
2019-02-10T02:17:38.606Z,3.03
2019-02-10T02:20:06.971Z,3.67
2019-02-10T02:22:34.564Z,3.33
2019-02-10T02:25:02.229Z,3.30
2019-02-10T02:27:29.915Z,3.23
2019-02-10T02:29:57.609Z,2.73
2019-02-10T02:32:25.321Z,3.40
2019-02-10T02:34:53.032Z,3.30
2019-02-10T02:37:20.712Z,3.27
2019-02-10T02:39:48.513Z,3.50
2019-02-10T02:42:16.187Z,3.23
2019-02-10T02:44:43.818Z,2.43
2019-02-10T02:47:11.501Z,2.50
2019-02-10T02:49:39.073Z,2.83
2019-02-10T02:52:07.259Z,2.77
2019-02-10T02:54:34.997Z,2.63
2019-02-10T02:57:02.940Z,2.20
2019-02-10T02:59:30.629Z,2.80
2019-02-10T03:01:58.377Z,3.03
2019-02-10T03:04:25.981Z,2.10
2019-02-10T03:06:53.644Z,2.37
2019-02-10T03:09:21.327Z,3.30
2019-02-10T03:11:48.932Z,2.83
2019-02-10T03:14:16.987Z,2.60
2019-02-10T03:16:44.685Z,2.47
2019-02-10T03:19:12.364Z,2.17
2019-02-10T03:21:39.998Z,2.63
2019-02-10T03:24:07.673Z,2.50
2019-02-10T03:26:35.381Z,2.60
2019-02-10T03:29:03.080Z,2.20
2019-02-10T03:31:30.889Z,2.73
2019-02-10T03:33:58.681Z,2.93
2019-02-10T03:36:26.381Z,2.00
2019-02-10T03:38:54.608Z,2.50
2019-02-10T03:41:22.302Z,2.73
2019-02-10T03:43:49.944Z,2.90
2019-02-10T03:46:17.731Z,2.67
2019-02-10T03:48:45.304Z,2.83
2019-02-10T03:51:15.764Z,2.60
2019-02-10T03:53:46.705Z,2.73
2019-02-10T03:56:14.364Z,3.03
2019-02-10T03:58:43.174Z,2.57
2019-02-10T04:01:10.794Z,2.67
2019-02-10T04:03:38.379Z,2.87
2019-02-10T04:06:06.123Z,2.47
2019-02-10T04:08:33.745Z,2.00
2019-02-10T04:11:01.360Z,2.43
2019-02-10T04:13:28.994Z,2.13
2019-02-10T04:15:56.780Z,2.80
2019-02-10T04:18:24.417Z,2.37
2019-02-10T04:20:52.022Z,2.10
2019-02-10T04:23:19.757Z,3.00
2019-02-10T04:25:48.326Z,2.53
2019-02-10T04:28:15.907Z,3.17
2019-02-10T04:30:43.552Z,2.57
2019-02-10T04:33:11.199Z,2.40
2019-02-10T04:35:38.832Z,2.90
2019-02-10T04:38:06.640Z,2.90
2019-02-10T04:40:34.260Z,3.10
2019-02-10T04:43:01.873Z,2.50
2019-02-10T04:45:29.687Z,3.23
2019-02-10T04:47:57.464Z,2.90
2019-02-10T04:50:25.149Z,2.63
2019-02-10T04:52:52.879Z,2.60
2019-02-10T04:55:20.497Z,2.70
2019-02-10T04:57:50.500Z,2.90
2019-02-10T05:00:18.280Z,2.63
2019-02-10T05:02:45.840Z,2.70
2019-02-10T05:05:16.484Z,2.23
2019-02-10T05:07:44.230Z,3.10
2019-02-10T05:10:14.670Z,3.30
2019-02-10T05:12:42.326Z,2.43
2019-02-10T05:15:10.141Z,2.53
2019-02-10T05:17:37.723Z,2.60
2019-02-10T05:20:05.480Z,3.17
2019-02-10T05:22:33.110Z,2.17
2019-02-10T05:25:01.069Z,2.63
2019-02-10T05:27:28.675Z,2.40
2019-02-10T05:29:56.367Z,2.90
2019-02-10T05:32:24.008Z,2.43
2019-02-10T05:34:51.566Z,3.30
2019-02-10T05:37:19.250Z,3.50
2019-02-10T05:39:47.223Z,3.07
2019-02-10T05:42:14.927Z,2.70
2019-02-10T05:44:42.673Z,2.30
2019-02-10T05:47:10.471Z,2.50
2019-02-10T05:49:38.061Z,2.53
2019-02-10T05:52:05.746Z,2.37
2019-02-10T05:54:33.339Z,2.43
2019-02-10T05:57:04.187Z,2.67
2019-02-10T05:59:31.923Z,2.67
2019-02-10T06:02:23.655Z,2.50
2019-02-10T06:04:51.597Z,2.47
2019-02-10T06:07:19.223Z,2.23
2019-02-10T06:09:46.860Z,2.53
2019-02-10T06:12:14.664Z,3.03
2019-02-10T06:14:42.221Z,2.70
2019-02-10T06:17:09.954Z,2.67
2019-02-10T06:19:37.649Z,2.07
2019-02-10T06:22:05.310Z,2.87
2019-02-10T06:24:32.971Z,2.50
2019-02-10T06:27:00.879Z,2.43
2019-02-10T06:29:28.493Z,2.30
2019-02-10T06:31:56.176Z,2.40
2019-02-10T06:34:24.055Z,2.77
2019-02-10T06:36:51.691Z,2.50
2019-02-10T06:39:19.338Z,2.30
2019-02-10T06:41:48.039Z,2.07
2019-02-10T06:44:16.063Z,2.20
2019-02-10T06:46:43.849Z,2.40
2019-02-10T06:49:11.514Z,3.23
2019-02-10T06:51:39.141Z,3.03
2019-02-10T06:54:06.783Z,2.67
2019-02-10T06:56:34.772Z,2.57
2019-02-10T06:59:02.425Z,2.43
2019-02-10T07:01:36.475Z,2.23
2019-02-10T07:04:32.566Z,2.40
2019-02-10T07:07:00.202Z,2.30
2019-02-10T07:09:27.825Z,2.30
2019-02-10T07:12:00.734Z,2.00
2019-02-10T07:14:39.240Z,2.23
2019-02-10T07:17:44.654Z,2.20
2019-02-10T07:20:40.584Z,2.67
2019-02-10T07:23:37.391Z,2.10
2019-02-10T07:26:15.722Z,2.23
2019-02-10T07:29:23.684Z,2.30
2019-02-10T07:32:14.048Z,2.00
2019-02-10T07:35:12.953Z,2.10
2019-02-10T07:38:07.169Z,2.10
2019-02-10T07:41:04.716Z,1.90
2019-02-10T07:44:10.335Z,2.10
2019-02-10T07:47:29.647Z,1.80
2019-02-10T07:50:22.357Z,1.60
2019-02-10T07:53:33.339Z,1.93
2019-02-10T07:56:28.822Z,1.67
2019-02-10T07:59:36.205Z,1.60
2019-02-10T08:02:30.895Z,1.73
2019-02-10T08:05:24.233Z,1.70
2019-02-10T08:08:06.986Z,1.93
2019-02-10T08:11:17.356Z,2.07
2019-02-10T08:14:24.247Z,1.30
2019-02-10T08:17:49.405Z,1.70
2019-02-10T08:21:00.832Z,1.83
2019-02-10T08:24:08.103Z,2.10
2019-02-10T08:27:26.238Z,2.03
2019-02-10T08:30:10.926Z,1.70
2019-02-10T08:33:08.403Z,2.00
2019-02-10T08:36:33.245Z,1.80
2019-02-10T08:39:29.839Z,1.70
2019-02-10T08:42:22.530Z,1.57
2019-02-10T08:45:08.875Z,1.70
2019-02-10T08:48:17.418Z,1.60
2019-02-10T08:51:28.645Z,1.67
2019-02-10T08:53:56.531Z,1.50
2019-02-10T08:56:33.278Z,1.63
2019-02-10T08:59:10.378Z,1.73
2019-02-10T09:01:38.901Z,1.73
2019-02-10T09:04:06.650Z,1.80
2019-02-10T09:06:35.606Z,1.67
2019-02-10T09:09:04.674Z,1.90
2019-02-10T09:11:33.745Z,1.90
2019-02-10T09:14:01.706Z,1.70
2019-02-10T09:16:29.789Z,1.77
2019-02-10T09:18:57.700Z,1.23
2019-02-10T09:21:25.634Z,1.40
2019-02-10T09:23:53.444Z,1.60
2019-02-10T09:26:21.363Z,1.53
2019-02-10T09:28:50.367Z,1.90
2019-02-10T09:31:18.343Z,1.83
2019-02-10T09:33:46.326Z,1.50
2019-02-10T09:36:17.566Z,1.80
2019-02-10T09:39:10.951Z,2.13
2019-02-10T09:41:34.626Z,1.53
2019-02-10T09:44:05.110Z,1.50
2019-02-10T09:46:33.082Z,1.40
2019-02-10T09:49:04.887Z,1.83
2019-02-10T09:51:32.521Z,2.23
2019-02-10T09:54:00.236Z,1.70
2019-02-10T09:56:28.053Z,1.90
2019-02-10T09:58:56.035Z,1.30
2019-02-10T10:01:23.827Z,1.67
2019-02-10T10:03:51.542Z,4.07
2019-02-10T10:06:20.467Z,1.87
2019-02-10T10:08:48.098Z,1.83
2019-02-10T10:11:15.712Z,2.10
2019-02-10T10:13:43.454Z,1.80
2019-02-10T10:16:11.078Z,1.70
2019-02-10T10:18:38.739Z,1.93
2019-02-10T10:21:06.747Z,1.70
2019-02-10T10:23:37.242Z,1.37
2019-02-10T10:26:04.970Z,1.63
2019-02-10T10:28:32.703Z,1.67
2019-02-10T10:31:02.520Z,1.67
2019-02-10T10:33:33.026Z,1.67
2019-02-10T10:36:01.126Z,5.33
2019-02-10T10:38:28.856Z,1.80
2019-02-10T10:40:56.794Z,1.70
2019-02-10T10:43:25.670Z,1.73
2019-02-10T10:45:53.371Z,1.60
2019-02-10T10:48:21.286Z,1.73
2019-02-10T10:50:50.107Z,1.40
2019-02-10T10:53:18.331Z,1.73
2019-02-10T10:55:46.897Z,1.60
2019-02-10T10:58:15.340Z,1.57
2019-02-10T11:00:54.161Z,1.63
2019-02-10T11:03:21.845Z,1.90
2019-02-10T11:05:52.223Z,1.57
2019-02-10T11:08:22.679Z,1.70
2019-02-10T11:10:50.307Z,1.50
2019-02-10T11:13:18.016Z,1.90
2019-02-10T11:15:46.068Z,1.63
2019-02-10T11:18:15.495Z,1.67
2019-02-10T11:20:43.292Z,1.83
2019-02-10T11:23:11.235Z,1.83
2019-02-10T11:25:40.017Z,1.27
2019-02-10T11:28:09.570Z,1.77
2019-02-10T11:30:37.578Z,1.90
2019-02-10T11:33:08.135Z,2.37
2019-02-10T11:35:38.696Z,2.00
2019-02-10T11:38:09.150Z,1.90
2019-02-10T11:40:36.827Z,1.60
2019-02-10T11:43:05.811Z,1.90
2019-02-10T11:45:39.733Z,2.00
2019-02-10T11:48:08.519Z,1.83
2019-02-10T11:50:41.770Z,1.87
2019-02-10T11:53:12.412Z,2.00
2019-02-10T11:55:40.424Z,1.83
2019-02-10T11:58:14.054Z,1.93
2019-02-10T12:00:41.834Z,2.17
2019-02-10T12:03:09.752Z,1.80
2019-02-10T12:05:37.580Z,2.70
2019-02-10T12:08:05.578Z,2.70
2019-02-10T12:10:34.208Z,1.73
2019-02-10T12:13:02.108Z,1.77
2019-02-10T12:15:30.019Z,2.07
2019-02-10T12:17:58.067Z,2.10
2019-02-10T12:20:26.812Z,2.07
2019-02-10T12:22:57.627Z,2.47
2019-02-10T12:25:25.450Z,2.10
2019-02-10T12:27:55.458Z,1.80
2019-02-10T12:30:26.109Z,1.97
2019-02-10T12:32:54.891Z,1.90
2019-02-10T12:35:30.309Z,2.17
2019-02-10T12:37:59.507Z,1.90
2019-02-10T12:40:29.915Z,1.70
2019-02-10T12:42:57.509Z,1.90
2019-02-10T12:45:25.522Z,1.77
2019-02-10T12:48:13.714Z,2.03
2019-02-10T12:50:41.683Z,1.90
2019-02-10T12:53:09.362Z,1.80
2019-02-10T12:55:38.957Z,2.00
2019-02-10T12:58:06.665Z,2.30
2019-02-10T13:00:34.679Z,2.23
2019-02-10T13:03:06.075Z,2.10
2019-02-10T13:05:34.497Z,1.87
2019-02-10T13:08:04.436Z,2.10
2019-02-10T13:10:32.315Z,2.20
2019-02-10T13:13:00.103Z,1.90
2019-02-10T13:15:30.462Z,1.80
2019-02-10T13:18:09.076Z,1.83
2019-02-10T13:20:37.190Z,1.67
2019-02-10T13:23:04.856Z,1.53
2019-02-10T13:25:33.497Z,1.47
2019-02-10T13:28:01.431Z,1.60
2019-02-10T13:30:29.447Z,1.20
2019-02-10T13:32:57.773Z,1.20
2019-02-10T13:35:25.808Z,1.30
2019-02-10T13:37:54.478Z,1.73
2019-02-10T13:40:22.366Z,1.50
2019-02-10T13:42:52.054Z,1.60
2019-02-10T13:45:27.766Z,1.23
2019-02-10T13:47:57.110Z,1.30
2019-02-10T13:50:27.354Z,1.40
2019-02-10T13:52:58.457Z,1.50
2019-02-10T13:55:26.541Z,1.40
2019-02-10T13:57:55.001Z,1.40
2019-02-10T14:00:24.932Z,1.40
2019-02-10T14:02:52.603Z,1.50
2019-02-10T14:05:22.876Z,1.60
2019-02-10T14:07:51.294Z,1.20
2019-02-10T14:10:25.300Z,1.00
2019-02-10T14:12:48.576Z,1.20
2019-02-10T14:15:16.482Z,1.40
2019-02-10T14:17:47.352Z,1.20
2019-02-10T14:20:15.202Z,1.60
2019-02-10T14:22:43.671Z,1.10
2019-02-10T14:25:11.370Z,1.00
2019-02-10T14:27:39.112Z,1.40
2019-02-10T14:30:08.162Z,1.30
2019-02-10T14:32:36.664Z,1.00
2019-02-10T14:35:14.370Z,1.20
2019-02-10T14:37:42.010Z,1.10
2019-02-10T14:40:10.092Z,1.20
2019-02-10T14:42:40.394Z,1.70
2019-02-10T14:45:13.838Z,1.50
2019-02-10T14:47:41.551Z,1.70
2019-02-10T14:50:14.219Z,1.40
2019-02-10T14:52:44.487Z,1.60
2019-02-10T14:55:13.028Z,1.43
2019-02-10T14:57:40.893Z,1.57
2019-02-10T15:00:12.932Z,1.40
2019-02-10T15:02:47.094Z,1.30
2019-02-10T15:05:17.975Z,1.00
2019-02-10T15:07:47.264Z,1.00
2019-02-10T15:10:15.585Z,0.90
2019-02-10T15:12:47.420Z,1.00
2019-02-10T15:15:18.555Z,0.90
2019-02-10T15:17:49.314Z,1.10
2019-02-10T15:20:20.063Z,0.90
2019-02-10T15:22:48.201Z,0.93
2019-02-10T15:25:18.690Z,1.20
2019-02-10T15:27:47.674Z,0.80
2019-02-10T15:30:15.899Z,1.00
2019-02-10T15:32:46.774Z,1.10
2019-02-10T15:35:18.019Z,1.10
2019-02-10T15:37:50.293Z,1.00
2019-02-10T15:40:18.337Z,0.83
2019-02-10T15:42:48.250Z,0.90
2019-02-10T15:45:27.694Z,1.23
2019-02-10T15:48:04.463Z,0.90
2019-02-10T15:50:37.172Z,0.97
2019-02-10T15:53:07.862Z,1.10
2019-02-10T15:55:44.158Z,0.93
2019-02-10T15:58:11.816Z,0.70
2019-02-10T16:00:39.570Z,1.10
2019-02-10T16:03:21.227Z,1.10
2019-02-10T16:05:51.276Z,1.20
2019-02-10T16:08:24.073Z,1.23
2019-02-10T16:10:57.982Z,2.57
2019-02-10T16:13:21.837Z,1.10
2019-02-10T16:15:49.574Z,1.00
2019-02-10T16:18:21.253Z,1.07
2019-02-10T16:20:53.678Z,1.00
2019-02-10T16:23:22.643Z,1.23
2019-02-10T16:25:53.355Z,0.97
2019-02-10T16:28:23.422Z,0.83
2019-02-10T16:30:56.228Z,0.80
2019-02-10T16:33:29.284Z,0.90
2019-02-10T16:35:57.106Z,0.90
2019-02-10T16:38:25.176Z,1.03
2019-02-10T16:41:05.963Z,0.83
2019-02-10T16:43:27.286Z,0.80
2019-02-10T16:45:55.076Z,0.90
2019-02-10T16:48:24.466Z,0.90
2019-02-10T16:50:52.834Z,0.90
2019-02-10T16:53:22.877Z,0.80
2019-02-10T16:55:50.379Z,0.90
2019-02-10T16:58:24.392Z,0.80
2019-02-10T17:00:52.538Z,0.87
2019-02-10T17:03:20.591Z,0.93
2019-02-10T17:05:48.694Z,1.30
2019-02-10T17:08:16.410Z,1.13
2019-02-10T17:10:44.546Z,1.10
2019-02-10T17:13:18.178Z,1.23
2019-02-10T17:15:46.506Z,1.10
2019-02-10T17:18:14.655Z,1.00
2019-02-10T17:20:42.614Z,1.00
2019-02-10T17:23:12.515Z,0.80
2019-02-10T17:25:45.780Z,0.90
2019-02-10T17:28:13.451Z,0.80
2019-02-10T17:30:41.287Z,1.17
2019-02-10T17:33:09.263Z,1.20
2019-02-10T17:35:37.476Z,1.00
2019-02-10T17:38:12.425Z,0.80
2019-02-10T17:40:47.687Z,1.20
2019-02-10T17:43:17.958Z,0.83
2019-02-10T17:45:45.768Z,1.00
2019-02-10T17:48:13.671Z,1.00
2019-02-10T17:50:43.626Z,0.70
2019-02-10T17:53:28.915Z,1.00
2019-02-10T17:55:56.928Z,0.87
2019-02-10T17:58:25.205Z,0.87
2019-02-10T18:00:53.182Z,0.90
2019-02-10T18:03:21.023Z,1.00
2019-02-10T18:05:49.822Z,1.17
2019-02-10T18:08:17.588Z,0.80
2019-02-10T18:10:51.300Z,1.00
2019-02-10T18:13:19.460Z,0.87
2019-02-10T18:15:55.726Z,0.87
2019-02-10T18:18:39.643Z,0.80
2019-02-10T18:21:39.488Z,0.90
2019-02-10T18:24:34.311Z,0.90
2019-02-10T18:27:20.293Z,0.90
2019-02-10T18:30:13.270Z,1.00
2019-02-10T18:33:01.075Z,0.80
2019-02-10T18:35:47.190Z,0.90
2019-02-10T18:38:40.023Z,1.20
2019-02-10T18:41:42.152Z,1.07
2019-02-10T18:44:31.955Z,0.90
2019-02-10T18:47:25.235Z,1.20
2019-02-10T18:50:11.332Z,0.70
2019-02-10T18:53:17.189Z,0.80
2019-02-10T18:56:00.082Z,0.90
2019-02-10T18:59:02.205Z,0.90
2019-02-10T19:01:47.670Z,0.60
2019-02-10T19:04:37.791Z,0.70
2019-02-10T19:07:27.789Z,0.57
2019-02-10T19:10:14.213Z,1.40
2019-02-10T19:12:58.649Z,0.53
2019-02-10T19:16:00.101Z,0.70
2019-02-10T19:18:46.084Z,0.70
2019-02-10T19:21:32.118Z,0.80
2019-02-10T19:24:25.522Z,0.67
2019-02-10T19:27:11.332Z,0.93
2019-02-10T19:30:10.196Z,0.80
2019-02-10T19:32:49.193Z,0.87
2019-02-10T19:35:49.707Z,0.60
2019-02-10T19:38:30.567Z,0.93
2019-02-10T19:41:12.855Z,0.80
2019-02-10T19:44:08.560Z,0.73
2019-02-10T19:47:10.787Z,0.80
2019-02-10T19:49:47.254Z,0.90
2019-02-10T19:52:35.847Z,1.00
2019-02-10T19:55:29.163Z,1.00
2019-02-10T19:58:17.291Z,1.37
2019-02-10T20:01:05.033Z,1.00
2019-02-10T20:04:00.225Z,1.20
2019-02-10T20:06:46.520Z,1.10
2019-02-10T20:09:21.487Z,0.90
2019-02-10T20:12:20.603Z,0.97
2019-02-10T20:15:06.006Z,1.00
2019-02-10T20:17:53.427Z,0.90
2019-02-10T20:20:33.051Z,0.80
2019-02-10T20:23:25.484Z,0.97
2019-02-10T20:26:13.118Z,1.00
2019-02-10T20:29:04.238Z,1.20
2019-02-10T20:31:49.624Z,1.03
2019-02-10T20:34:35.468Z,1.17
2019-02-10T20:37:28.546Z,1.00
2019-02-10T20:40:32.324Z,1.03
2019-02-10T20:43:22.047Z,1.00
2019-02-10T20:46:02.825Z,1.23
2019-02-10T20:48:46.478Z,0.90
2019-02-10T20:51:39.813Z,1.10
2019-02-10T20:54:16.966Z,0.70
2019-02-10T20:57:10.078Z,1.20
2019-02-10T21:00:03.301Z,0.90
2019-02-10T21:03:08.710Z,0.90
2019-02-10T21:05:52.479Z,1.00
2019-02-10T21:08:33.668Z,1.17
2019-02-10T21:11:23.731Z,1.00
2019-02-10T21:14:13.463Z,1.13
2019-02-10T21:16:49.803Z,1.20
2019-02-10T21:19:35.861Z,1.10
2019-02-10T21:22:09.786Z,1.10
2019-02-10T21:24:44.349Z,1.03
2019-02-10T21:27:34.378Z,1.00
2019-02-10T21:30:20.087Z,1.13
2019-02-10T21:33:05.886Z,0.80
2019-02-10T21:35:53.413Z,1.00
2019-02-10T21:38:30.786Z,1.33
2019-02-10T21:41:17.368Z,1.10
2019-02-10T21:43:58.775Z,0.83
2019-02-10T21:46:38.994Z,0.90
2019-02-10T21:49:09.743Z,1.00
2019-02-10T21:51:37.456Z,0.70
2019-02-10T21:54:06.018Z,1.30
2019-02-10T21:56:33.714Z,0.90
2019-02-10T21:59:01.438Z,1.00
2019-02-10T22:01:29.283Z,0.87
2019-02-10T22:03:57.265Z,1.00
2019-02-10T22:06:24.860Z,1.40
2019-02-10T22:08:52.777Z,1.10
2019-02-10T22:11:20.448Z,0.90
2019-02-10T22:13:48.626Z,1.00
2019-02-10T22:16:19.223Z,0.87
2019-02-10T22:18:46.918Z,1.00
2019-02-10T22:21:17.192Z,1.00
2019-02-10T22:23:46.233Z,1.10
2019-02-10T22:26:13.974Z,1.00
2019-02-10T22:28:41.644Z,1.10
2019-02-10T22:31:09.397Z,0.90
2019-02-10T22:33:37.032Z,1.00
2019-02-10T22:36:05.074Z,1.00
2019-02-10T22:38:32.798Z,1.00
2019-02-10T22:41:00.568Z,1.00
2019-02-10T22:43:28.294Z,1.07
2019-02-10T22:45:56.236Z,1.17
2019-02-10T22:48:24.177Z,0.97
2019-02-10T22:50:51.888Z,0.90
2019-02-10T22:53:19.823Z,0.73
2019-02-10T22:55:47.575Z,1.00
2019-02-10T22:58:15.760Z,0.87
2019-02-10T23:00:59.680Z,0.80
2019-02-10T23:03:27.448Z,0.90
2019-02-10T23:05:55.077Z,0.80
2019-02-10T23:08:23.303Z,0.70
2019-02-10T23:10:54.059Z,0.80
2019-02-10T23:13:21.946Z,0.90
2019-02-10T23:15:50.222Z,0.80
2019-02-10T23:18:19.856Z,0.77
2019-02-10T23:20:47.722Z,0.90
2019-02-10T23:23:19.284Z,0.60
2019-02-10T23:25:46.620Z,0.77
2019-02-10T23:28:14.354Z,0.90
2019-02-10T23:30:42.520Z,0.80
2019-02-10T23:33:13.107Z,0.67
2019-02-10T23:35:40.771Z,0.80
2019-02-10T23:38:08.541Z,0.70
2019-02-10T23:40:36.095Z,0.60
2019-02-10T23:43:03.708Z,0.70
2019-02-10T23:45:31.413Z,0.77
2019-02-10T23:47:59.244Z,0.70
2019-02-10T23:50:29.422Z,0.47
2019-02-10T23:52:57.863Z,0.70
2019-02-10T23:55:27.824Z,0.57
2019-02-10T23:57:55.539Z,0.63
